Time;durP1;ratioP1;P1;durP2;ratioP2;P2;SDS_P1;SDS_P2;PMS_P1;PMS_P2;Temp;Humidity;BMP_temperature;BMP_pressure;BME280_temperature;BME280_humidity;BME280_pressure;Samples;Min_cycle;Max_cycle;Signal;HPM_P1;HPM_P2
2022/06/23 00:00:39;;;;;;;;;;;;;;;;;;5072668;28;1067;-75
2022/06/23 00:03:06;;;;;;;;;;;;;;;;;;5072586;28;1715;-75
2022/06/23 00:05:34;;;;;;;;;;;;;;;;;;5072200;28;1096;-75
2022/06/23 00:08:02;;;;;;;;;;;;;;;;;;5071702;28;1103;-75
2022/06/23 00:10:33;;;;;;;;;;;;;;;;;;5072042;28;1008;-75
2022/06/23 00:12:59;;;;;;;;;;;;;;;;;;5071942;28;1400;-74
2022/06/23 00:15:27;;;;;;;;;;;;;;;;;;5072187;28;1977;-75
2022/06/23 00:17:57;;;;;;;;;;;;;;;;;;5052981;28;1160;-75
2022/06/23 00:20:24;;;;;;;;;;;;;;;;;;5072077;28;861;-75
2022/06/23 00:22:51;;;;;;;;;;;;;;;;;;5071565;28;1326;-75
2022/06/23 00:25:23;;;;;;;;;;;;;;;;;;5053592;28;1144;-75
2022/06/23 00:27:50;;;;;;;;;;;;;;;;;;5070596;28;850;-75
2022/06/23 00:30:19;;;;;;;;;;;;;;;;;;5053628;28;929;-72
2022/06/23 00:32:45;;;;;;;;;;;;;;;;;;5071653;28;1316;-73
2022/06/23 00:35:12;;;;;;;;;;;;;;;;;;5053182;28;2008;-75
2022/06/23 00:37:38;;;;;;;;;;;;;;;;;;5053404;28;1061;-76
2022/06/23 00:40:05;;;;;;;;;;;;;;;;;;5071392;28;1075;-74
2022/06/23 00:42:34;;;;;;;;;;;;;;;;;;5071220;28;1309;-74
2022/06/23 00:45:01;;;;;;;;;;;;;;;;;;5053400;28;1144;-74
2022/06/23 00:47:28;;;;;;;;;;;;;;;;;;5071038;28;932;-74
2022/06/23 00:49:55;;;;;;;;;;;;;;;;;;5071521;28;1091;-74
2022/06/23 00:52:24;;;;;;;;;;;;;;;;;;5071289;28;1392;-74
2022/06/23 00:54:52;;;;;;;;;;;;;;;;;;5071253;28;1909;-74
2022/06/23 00:57:22;;;;;;;;;;;;;;;;;;5070107;28;841;-74
2022/06/23 00:59:50;;;;;;;;;;;;;;;;;;5082737;28;1479;-74
2022/06/23 01:02:17;;;;;;;;;;;;;;;;;;5091465;28;1382;-74
2022/06/23 01:04:45;;;;;;;;;;;;;;;;;;5090771;28;1063;-74
2022/06/23 01:07:18;;;;;;;;;;;;;;;;;;5090478;28;1064;-73
2022/06/23 01:09:45;;;;;;;;;;;;;;;;;;5091299;28;1023;-74
2022/06/23 01:12:16;;;;;;;;;;;;;;;;;;5091133;28;1281;-74
2022/06/23 01:14:43;;;;;;;;;;;;;;;;;;5091228;28;1965;-73
2022/06/23 01:17:14;;;;;;;;;;;;;;;;;;5090316;28;1079;-74
2022/06/23 01:19:44;;;;;;;;;;;;;;;;;;5091074;28;1024;-74
2022/06/23 01:22:15;;;;;;;;;;;;;;;;;;5090843;28;1395;-74
2022/06/23 01:24:42;;;;;;;;;;;;;;;;;;5090837;28;842;-75
2022/06/23 01:27:20;;;;;;;;;;;;;;;;;;5089884;28;1011;-74
2022/06/23 01:29:48;;;;;;;;;;;;;;;;;;5090972;28;1134;-75
2022/06/23 01:32:15;;;;;;;;;;;;;;;;;;5090712;28;1302;-75
2022/06/23 01:34:44;;;;;;;;;;;;;;;;;;5091082;28;1914;-74
2022/06/23 01:37:12;;;;;;;;;;;;;;;;;;5090170;28;1075;-75
2022/06/23 01:39:39;;;;;;;;;;;;;;;;;;5091028;28;1129;-75
2022/06/23 01:42:11;;;;;;;;;;;;;;;;;;5090305;28;1286;-74
2022/06/23 01:44:40;;;;;;;;;;;;;;;;;;5090623;28;1071;-74
2022/06/23 01:47:12;;;;;;;;;;;;;;;;;;5089725;28;1552;-75
2022/06/23 01:49:39;;;;;;;;;;;;;;;;;;5090906;28;877;-74
2022/06/23 01:52:09;;;;;;;;;;;;;;;;;;5090153;28;1312;-75
2022/06/23 01:54:35;;;;;;;;;;;;;;;;;;5090349;28;1914;-75
2022/06/23 01:57:03;;;;;;;;;;;;;;;;;;5089743;28;1112;-74
2022/06/23 01:59:33;;;;;;;;;;;;;;;;;;5090583;28;1068;-75
2022/06/23 02:02:02;;;;;;;;;;;;;;;;;;5089947;28;1337;-74
2022/06/23 02:04:31;;;;;;;;;;;;;;;;;;5072592;28;1298;-75
2022/06/23 02:06:58;;;;;;;;;;;;;;;;;;5089764;28;1071;-74
2022/06/23 02:09:27;;;;;;;;;;;;;;;;;;5090137;28;1043;-74
2022/06/23 02:11:53;;;;;;;;;;;;;;;;;;5090386;28;1398;-74
2022/06/23 02:14:21;;;;;;;;;;;;;;;;;;5090514;28;1918;-74
2022/06/23 02:16:49;;;;;;;;;;;;;;;;;;5089675;28;1080;-75
2022/06/23 02:19:17;;;;;;;;;;;;;;;;;;5067272;28;2219;-73
2022/06/23 02:21:46;;;;;;;;;;;;;;;;;;5068605;28;1902;-74
2022/06/23 02:24:13;;;;;;;;;;;;;;;;;;5071552;28;1882;-74
2022/06/23 02:26:42;;;;;;;;;;;;;;;;;;5065633;28;2116;-74
2022/06/23 02:29:12;;;;;;;;;;;;;;;;;;5070452;28;2305;-75
2022/06/23 02:31:40;;;;;;;;;;;;;;;;;;5070126;28;1350;-73
2022/06/23 02:34:07;;;;;;;;;;;;;;;;;;5069830;28;1977;-75
2022/06/23 02:36:37;;;;;;;;;;;;;;;;;;5069342;28;1071;-74
2022/06/23 02:39:05;;;;;;;;;;;;;;;;;;5069914;28;1007;-74
2022/06/23 02:41:36;;;;;;;;;;;;;;;;;;5069853;28;814;-75
2022/06/23 02:44:06;;;;;;;;;;;;;;;;;;5070832;22;2107;-70
2022/06/23 02:46:43;;;;;;;;;;;;;;;;;;5069034;28;1115;-69
2022/06/23 02:49:14;;;;;;;;;;;;;;;;;;5069706;28;941;-70
2022/06/23 02:51:46;;;;;;;;;;;;;;;;;;5069789;28;1075;-70
2022/06/23 02:54:24;;;;;;;;;;;;;;;;;;5069008;28;1914;-70
2022/06/23 02:57:03;;;;;;;;;;;;;;;;;;5068795;28;1106;-70
2022/06/23 02:59:31;;;;;;;;;;;;;;;;;;5072328;28;1064;-70
2022/06/23 03:01:58;;;;;;;;;;;;;;;;;;5065305;28;1383;-70
2022/06/23 03:04:24;;;;;;;;;;;;;;;;;;5053194;28;1387;-70
2022/06/23 03:06:52;;;;;;;;;;;;;;;;;;5052734;28;885;-69
2022/06/23 03:09:19;;;;;;;;;;;;;;;;;;5052959;28;725;-70
2022/06/23 03:11:54;;;;;;;;;;;;;;;;;;5053112;28;1072;-69
2022/06/23 03:14:22;;;;;;;;;;;;;;;;;;5052734;28;1914;-70
2022/06/23 03:16:50;;;;;;;;;;;;;;;;;;5052055;28;676;-70
2022/06/23 03:19:17;;;;;;;;;;;;;;;;;;5052901;28;965;-70
2022/06/23 03:21:45;;;;;;;;;;;;;;;;;;5052767;28;1055;-71
2022/06/23 03:24:12;;;;;;;;;;;;;;;;;;5052614;28;1298;-70
2022/06/23 03:26:39;;;;;;;;;;;;;;;;;;5052050;28;786;-71
2022/06/23 03:29:10;;;;;;;;;;;;;;;;;;5052471;28;1084;-71
2022/06/23 03:31:38;;;;;;;;;;;;;;;;;;5052045;28;878;-71
2022/06/23 03:34:04;;;;;;;;;;;;;;;;;;5052374;28;1309;-71
2022/06/23 03:36:32;;;;;;;;;;;;;;;;;;5051903;28;2250;-72
2022/06/23 03:41:44;;;;;;;;;;;;;;;;;;5050974;28;1020;-71
2022/06/23 03:44:15;;;;;;;;;;;;;;;;;;5052468;28;1372;-71
2022/06/23 03:46:43;;;;;;;;;;;;;;;;;;5050354;28;905;-72
2022/06/23 03:49:11;;;;;;;;;;;;;;;;;;5051106;28;1386;-71
2022/06/23 03:51:38;;;;;;;;;;;;;;;;;;5056089;28;1855;-69
2022/06/23 03:54:06;;;;;;;;;;;;;;;;;;5066674;28;1331;-71
2022/06/23 03:56:32;;;;;;;;;;;;;;;;;;5051485;28;1914;-71
2022/06/23 03:59:00;;;;;;;;;;;;;;;;;;5066514;28;1337;-72
2022/06/23 04:01:29;;;;;;;;;;;;;;;;;;5066633;28;1338;-72
2022/06/23 04:03:57;;;;;;;;;;;;;;;;;;5049851;28;1643;-71
2022/06/23 04:06:38;;;;;;;;;;;;;;;;;;5055512;28;1299;-71
2022/06/23 04:09:07;;;;;;;;;;;;;;;;;;5063806;28;1679;-71
2022/06/23 04:11:46;;;;;;;;;;;;;;;;;;5071597;28;1176;-70
2022/06/23 04:14:20;;;;;;;;;;;;;;;;;;5060443;28;1434;-71
2022/06/23 04:16:48;;;;;;;;;;;;;;;;;;5056357;28;1348;-72
2022/06/23 04:19:16;;;;;;;;;;;;;;;;;;5055546;28;1150;-72
2022/06/23 04:21:43;;;;;;;;;;;;;;;;;;5070185;28;1203;-72
2022/06/23 04:24:12;;;;;;;;;;;;;;;;;;5064518;28;1349;-72
2022/06/23 04:26:40;;;;;;;;;;;;;;;;;;5059859;28;1351;-71
2022/06/23 04:29:07;;;;;;;;;;;;;;;;;;5067885;28;1350;-70
2022/06/23 04:31:35;;;;;;;;;;;;;;;;;;5056832;28;1568;-71
2022/06/23 04:34:03;;;;;;;;;;;;;;;;;;5070857;28;1431;-71
2022/06/23 04:36:29;;;;;;;;;;;;;;;;;;5070490;28;1928;-71
2022/06/23 04:38:57;;;;;;;;;;;;;;;;;;5062127;28;1365;-71
2022/06/23 04:41:23;;;;;;;;;;;;;;;;;;5064254;28;1441;-70
2022/06/23 04:43:50;;;;;;;;;;;;;;;;;;5065082;28;1785;-71
2022/06/23 04:46:17;;;;;;;;;;;;;;;;;;5055401;28;1370;-71
2022/06/23 04:48:46;;;;;;;;;;;;;;;;;;5065221;28;1477;-70
2022/06/23 04:51:18;;;;;;;;;;;;;;;;;;5069471;28;1311;-72
2022/06/23 04:53:47;;;;;;;;;;;;;;;;;;5069637;28;1394;-71
2022/06/23 04:56:21;;;;;;;;;;;;;;;;;;5041439;28;1906;-71
2022/06/23 04:58:49;;;;;;;;;;;;;;;;;;5031277;28;898;-71
2022/06/23 05:01:16;;;;;;;;;;;;;;;;;;5037767;28;1502;-71
2022/06/23 05:03:44;;;;;;;;;;;;;;;;;;5040594;28;1468;-72
2022/06/23 05:06:11;;;;;;;;;;;;;;;;;;5032163;28;1270;-70
2022/06/23 05:08:40;;;;;;;;;;;;;;;;;;5030931;28;1072;-72
2022/06/23 05:11:06;;;;;;;;;;;;;;;;;;5030595;28;898;-70
2022/06/23 05:13:37;;;;;;;;;;;;;;;;;;5030904;28;1258;-70
2022/06/23 05:16:05;;;;;;;;;;;;;;;;;;5030697;28;1907;-71
2022/06/23 05:18:32;;;;;;;;;;;;;;;;;;5029492;28;1140;-71
2022/06/23 05:20:59;;;;;;;;;;;;;;;;;;5030044;28;1060;-70
2022/06/23 05:23:26;;;;;;;;;;;;;;;;;;5028568;28;1341;-71
2022/06/23 05:25:54;;;;;;;;;;;;;;;;;;5033033;28;1223;-69
2022/06/23 05:28:22;;;;;;;;;;;;;;;;;;5032279;28;1235;-70
2022/06/23 05:30:48;;;;;;;;;;;;;;;;;;5030539;28;874;-71
2022/06/23 05:33:15;;;;;;;;;;;;;;;;;;5028698;28;1333;-71
2022/06/23 05:35:43;;;;;;;;;;;;;;;;;;5030585;28;1977;-70
2022/06/23 05:38:10;;;;;;;;;;;;;;;;;;5027905;28;1182;-71
2022/06/23 05:40:37;;;;;;;;;;;;;;;;;;5028662;28;1056;-70
2022/06/23 05:43:05;;;;;;;;;;;;;;;;;;5028010;28;1314;-70
2022/06/23 05:45:32;;;;;;;;;;;;;;;;;;5028877;28;905;-71
2022/06/23 05:47:58;;;;;;;;;;;;;;;;;;5026371;28;1218;-71
2022/06/23 05:50:26;;;;;;;;;;;;;;;;;;5028535;28;1120;-71
2022/06/23 05:52:54;;;;;;;;;;;;;;;;;;5027006;28;1396;-70
2022/06/23 05:55:21;;;;;;;;;;;;;;;;;;5029890;28;1969;-70
2022/06/23 05:57:48;;;;;;;;;;;;;;;;;;5028321;28;1485;-70
2022/06/23 06:00:17;;;;;;;;;;;;;;;;;;5028597;28;1147;-72
2022/06/23 06:02:46;;;;;;;;;;;;;;;;;;5028832;28;1338;-70
2022/06/23 06:05:15;;;;;;;;;;;;;;;;;;5030243;28;947;-72
2022/06/23 06:07:41;;;;;;;;;;;;;;;;;;5029664;28;1080;-72
2022/06/23 06:10:16;;;;;;;;;;;;;;;;;;5030150;28;874;-72
2022/06/23 06:12:42;;;;;;;;;;;;;;;;;;5030307;28;1328;-69
2022/06/23 06:15:12;;;;;;;;;;;;;;;;;;5029821;28;1911;-72
2022/06/23 06:17:39;;;;;;;;;;;;;;;;;;5029653;28;1137;-72
2022/06/23 06:20:07;;;;;;;;;;;;;;;;;;5030112;28;881;-71
2022/06/23 06:22:37;;;;;;;;;;;;;;;;;;5029982;28;1072;-72
2022/06/23 06:25:04;;;;;;;;;;;;;;;;;;5030311;28;1362;-72
2022/06/23 06:27:30;;;;;;;;;;;;;;;;;;5029673;28;1135;-72
2022/06/23 06:29:57;;;;;;;;;;;;;;;;;;5030346;28;1107;-72
2022/06/23 06:32:27;;;;;;;;;;;;;;;;;;5029866;28;1088;-71
2022/06/23 06:34:55;;;;;;;;;;;;;;;;;;5031914;28;1427;-72
2022/06/23 06:37:21;;;;;;;;;;;;;;;;;;5033172;28;1926;-72
2022/06/23 06:39:49;;;;;;;;;;;;;;;;;;5033988;28;1139;-72
2022/06/23 06:42:17;;;;;;;;;;;;;;;;;;5032328;28;1160;-72
2022/06/23 06:44:44;;;;;;;;;;;;;;;;;;5033640;28;1306;-72
2022/06/23 06:47:11;;;;;;;;;;;;;;;;;;5032833;28;1072;-72
2022/06/23 06:49:37;;;;;;;;;;;;;;;;;;5033629;28;1068;-72
2022/06/23 06:52:05;;;;;;;;;;;;;;;;;;5032677;28;1092;-72
2022/06/23 06:54:34;;;;;;;;;;;;;;;;;;5033495;28;1405;-72
2022/06/23 06:57:01;;;;;;;;;;;;;;;;;;5037564;28;1971;-71
2022/06/23 06:59:28;;;;;;;;;;;;;;;;;;5052264;28;1382;-71
2022/06/23 07:01:55;;;;;;;;;;;;;;;;;;5052807;28;925;-71
2022/06/23 07:04:22;;;;;;;;;;;;;;;;;;5053239;28;1266;-72
2022/06/23 07:06:50;;;;;;;;;;;;;;;;;;5052340;28;1091;-72
2022/06/23 07:09:24;;;;;;;;;;;;;;;;;;5052518;28;1118;-72
2022/06/23 07:11:53;;;;;;;;;;;;;;;;;;5052498;28;961;-71
2022/06/23 07:14:20;;;;;;;;;;;;;;;;;;5051480;28;1946;-72
2022/06/23 07:16:48;;;;;;;;;;;;;;;;;;5052338;28;1960;-71
2022/06/23 07:19:15;;;;;;;;;;;;;;;;;;5052846;28;954;-72
2022/06/23 07:21:41;;;;;;;;;;;;;;;;;;5052655;28;1128;-72
2022/06/23 07:24:12;;;;;;;;;;;;;;;;;;5052630;28;1302;-72
2022/06/23 07:26:41;;;;;;;;;;;;;;;;;;5052097;28;1075;-72
2022/06/23 07:29:09;;;;;;;;;;;;;;;;;;5052417;28;972;-72
2022/06/23 07:31:39;;;;;;;;;;;;;;;;;;5052625;28;1055;-72
2022/06/23 07:34:06;;;;;;;;;;;;;;;;;;5052544;28;1328;-72
2022/06/23 07:36:33;;;;;;;;;;;;;;;;;;5050313;28;1918;-72
2022/06/23 07:38:59;;;;;;;;;;;;;;;;;;5052550;28;1124;-72
2022/06/23 07:41:28;;;;;;;;;;;;;;;;;;5052092;28;1005;-72
2022/06/23 07:43:57;;;;;;;;;;;;;;;;;;5051956;28;1326;-72
2022/06/23 07:46:23;;;;;;;;;;;;;;;;;;5051432;28;1060;-72
2022/06/23 07:48:50;;;;;;;;;;;;;;;;;;5052120;28;822;-71
2022/06/23 07:51:16;;;;;;;;;;;;;;;;;;5051812;28;1073;-72
2022/06/23 07:53:42;;;;;;;;;;;;;;;;;;5050843;28;1329;-72
2022/06/23 07:56:11;;;;;;;;;;;;;;;;;;5051468;28;1969;-71
2022/06/23 07:58:40;;;;;;;;;;;;;;;;;;5052232;28;915;-71
2022/06/23 08:01:08;;;;;;;;;;;;;;;;;;5051855;28;1127;-69
2022/06/23 08:03:35;;;;;;;;;;;;;;;;;;5050411;28;1413;-72
2022/06/23 08:06:02;;;;;;;;;;;;;;;;;;5051807;28;797;-72
2022/06/23 08:08:30;;;;;;;;;;;;;;;;;;5051518;28;806;-72
2022/06/23 08:13:36;;;;;;;;;;;;;;;;;;5051575;28;1337;-72
2022/06/23 08:18:48;;;;;;;;;;;;;;;;;;5051383;28;1966;-72
2022/06/23 08:21:15;;;;;;;;;;;;;;;;;;5055411;28;1487;-72
2022/06/23 08:23:43;;;;;;;;;;;;;;;;;;5071448;28;1335;-73
2022/06/23 08:26:10;;;;;;;;;;;;;;;;;;5070977;28;1075;-71
2022/06/23 08:28:37;;;;;;;;;;;;;;;;;;5070254;28;1132;-72
2022/06/23 08:31:03;;;;;;;;;;;;;;;;;;5071468;28;1008;-72
2022/06/23 08:33:29;;;;;;;;;;;;;;;;;;5071188;28;1392;-72
2022/06/23 08:35:57;;;;;;;;;;;;;;;;;;5071385;28;1967;-71
2022/06/23 08:38:24;;;;;;;;;;;;;;;;;;5069651;28;1333;-72
2022/06/23 08:40:55;;;;;;;;;;;;;;;;;;5071005;28;1059;-72
2022/06/23 08:43:22;;;;;;;;;;;;;;;;;;5071233;28;1357;-72
2022/06/23 08:45:49;;;;;;;;;;;;;;;;;;5071252;28;850;-72
2022/06/23 08:48:18;;;;;;;;;;;;;;;;;;5070524;28;1056;-72
2022/06/23 08:50:49;;;;;;;;;;;;;;;;;;5071972;28;1257;-72
2022/06/23 08:53:19;;;;;;;;;;;;;;;;;;5061979;28;2028;-73
2022/06/23 08:55:47;;;;;;;;;;;;;;;;;;5070227;28;1155;-72
2022/06/23 08:58:15;;;;;;;;;;;;;;;;;;5070128;28;1123;-72
2022/06/23 09:00:48;;;;;;;;;;;;;;;;;;5064052;28;1430;-72
2022/06/23 09:03:15;;;;;;;;;;;;;;;;;;5050584;28;1403;-73
2022/06/23 09:05:43;;;;;;;;;;;;;;;;;;5050705;28;1056;-71
2022/06/23 09:08:11;;;;;;;;;;;;;;;;;;5035430;28;1130;-72
2022/06/23 09:10:40;;;;;;;;;;;;;;;;;;5063548;28;1052;-73
2022/06/23 09:13:08;;;;;;;;;;;;;;;;;;5068869;28;1324;-72
2022/06/23 09:15:47;;;;;;;;;;;;;;;;;;5070535;28;1103;-71
2022/06/23 09:18:40;;;;;;;;;;;;;;;;;;5069151;28;1914;-71
2022/06/23 09:21:13;;;;;;;;;;;;;;;;;;5070186;28;1067;-73
2022/06/23 09:23:49;;;;;;;;;;;;;;;;;;5070401;28;1330;-72
2022/06/23 09:26:18;;;;;;;;;;;;;;;;;;5068814;28;985;-72
2022/06/23 09:28:47;;;;;;;;;;;;;;;;;;5070548;28;1052;-71
2022/06/23 09:31:18;;;;;;;;;;;;;;;;;;5068583;28;1235;-72
2022/06/23 09:33:48;;;;;;;;;;;;;;;;;;5056661;28;1455;-72
2022/06/23 09:36:20;;;;;;;;;;;;;;;;;;5050059;28;1922;-71
2022/06/23 09:38:50;;;;;;;;;;;;;;;;;;5048941;28;1152;-72
2022/06/23 09:41:22;;;;;;;;;;;;;;;;;;5051682;28;1362;-72
2022/06/23 09:43:52;;;;;;;;;;;;;;;;;;5051417;28;1484;-71
2022/06/23 09:46:26;;;;;;;;;;;;;;;;;;5068067;28;1292;-72
2022/06/23 09:48:54;;;;;;;;;;;;;;;;;;5069710;28;826;-72
2022/06/23 09:51:34;;;;;;;;;;;;;;;;;;5069883;28;1084;-71
2022/06/23 09:54:11;;;;;;;;;;;;;;;;;;5064558;28;1424;-72
2022/06/23 09:56:43;;;;;;;;;;;;;;;;;;5061544;28;1923;-72
2022/06/23 09:59:13;;;;;;;;;;;;;;;;;;5061092;28;1539;-73
2022/06/23 10:01:42;;;;;;;;;;;;;;;;;;5056328;28;1314;-73
2022/06/23 10:04:14;;;;;;;;;;;;;;;;;;5063252;28;1630;-72
2022/06/23 10:06:42;;;;;;;;;;;;;;;;;;5058401;28;1335;-73
2022/06/23 10:09:11;;;;;;;;;;;;;;;;;;5073005;28;1169;-71
2022/06/23 10:11:43;;;;;;;;;;;;;;;;;;5057774;28;1500;-73
2022/06/23 10:14:36;;;;;;;;;;;;;;;;;;5073017;28;1421;-72
2022/06/23 10:17:09;;;;;;;;;;;;;;;;;;5036460;28;1905;-73
2022/06/23 10:19:40;;;;;;;;;;;;;;;;;;5054285;28;1689;-74
2022/06/23 10:22:11;;;;;;;;;;;;;;;;;;5073211;28;1243;-73
2022/06/23 10:24:42;;;;;;;;;;;;;;;;;;5072963;28;1401;-72
2022/06/23 10:27:16;;;;;;;;;;;;;;;;;;5067389;28;1438;-73
2022/06/23 10:29:46;;;;;;;;;;;;;;;;;;5070112;28;1398;-73
2022/06/23 10:32:20;;;;;;;;;;;;;;;;;;5074476;28;1358;-72
2022/06/23 10:35:04;;;;;;;;;;;;;;;;;;5072321;28;1371;-74
2022/06/23 10:37:35;;;;;;;;;;;;;;;;;;5064363;28;1922;-72
2022/06/23 10:40:18;;;;;;;;;;;;;;;;;;5073483;28;1172;-74
2022/06/23 10:42:52;;;;;;;;;;;;;;;;;;5057668;28;1455;-74
2022/06/23 10:45:30;;;;;;;;;;;;;;;;;;5057752;28;1205;-72
2022/06/23 10:48:17;;;;;;;;;;;;;;;;;;5068445;28;1383;-74
2022/06/23 10:50:45;;;;;;;;;;;;;;;;;;5058295;28;1307;-73
2022/06/23 10:53:14;;;;;;;;;;;;;;;;;;5057587;28;1423;-73
2022/06/23 10:55:53;;;;;;;;;;;;;;;;;;5073414;28;1181;-73
2022/06/23 10:58:40;;;;;;;;;;;;;;;;;;5065540;28;1972;-72
2022/06/23 11:01:10;;;;;;;;;;;;;;;;;;5054029;28;1580;-73
2022/06/23 11:03:44;;;;;;;;;;;;;;;;;;5065018;28;1420;-73
2022/06/23 11:06:16;;;;;;;;;;;;;;;;;;5057317;28;1390;-73
2022/06/23 11:08:53;;;;;;;;;;;;;;;;;;5072915;28;1231;-74
2022/06/23 11:11:24;;;;;;;;;;;;;;;;;;5061461;28;1466;-73
2022/06/23 11:13:53;;;;;;;;;;;;;;;;;;5052978;28;1325;-73
2022/06/23 11:16:22;;;;;;;;;;;;;;;;;;5063118;28;1374;-73
2022/06/23 11:18:59;;;;;;;;;;;;;;;;;;5071703;28;1977;-73
2022/06/23 11:21:28;;;;;;;;;;;;;;;;;;5071280;28;819;-73
2022/06/23 11:23:56;;;;;;;;;;;;;;;;;;5071358;28;1394;-73
2022/06/23 11:26:25;;;;;;;;;;;;;;;;;;5064333;28;1354;-73
2022/06/23 11:28:56;;;;;;;;;;;;;;;;;;5053832;28;1397;-73
2022/06/23 11:31:25;;;;;;;;;;;;;;;;;;5072292;28;1223;-73
2022/06/23 11:34:13;;;;;;;;;;;;;;;;;;5070259;28;1433;-73
2022/06/23 11:36:49;;;;;;;;;;;;;;;;;;5058952;28;2471;-73
2022/06/23 11:39:20;;;;;;;;;;;;;;;;;;5056336;28;1186;-73
2022/06/23 11:41:51;;;;;;;;;;;;;;;;;;5072019;28;1056;-74
2022/06/23 11:44:22;;;;;;;;;;;;;;;;;;5070875;28;1314;-73
2022/06/23 11:46:49;;;;;;;;;;;;;;;;;;5061861;28;1386;-73
2022/06/23 11:49:19;;;;;;;;;;;;;;;;;;5071975;28;1530;-74
2022/06/23 11:51:58;;;;;;;;;;;;;;;;;;5070635;28;1359;-74
2022/06/23 11:54:30;;;;;;;;;;;;;;;;;;5068336;28;1422;-74
2022/06/23 11:57:00;;;;;;;;;;;;;;;;;;5066864;28;1927;-73
2022/06/23 11:59:32;;;;;;;;;;;;;;;;;;5071376;28;1176;-73
2022/06/23 12:01:58;;;;;;;;;;;;;;;;;;5072064;28;647;-73
2022/06/23 12:04:40;;;;;;;;;;;;;;;;;;5067372;28;1412;-73
2022/06/23 12:07:13;;;;;;;;;;;;;;;;;;5071121;28;1212;-74
2022/06/23 12:09:41;;;;;;;;;;;;;;;;;;5071133;28;1086;-73
2022/06/23 12:12:07;;;;;;;;;;;;;;;;;;5071008;28;1138;-74
2022/06/23 12:14:35;;;;;;;;;;;;;;;;;;5065641;28;1408;-74
2022/06/23 12:17:06;;;;;;;;;;;;;;;;;;5070673;28;1949;-73
2022/06/23 12:19:33;;;;;;;;;;;;;;;;;;5052947;28;1441;-71
2022/06/23 12:22:01;;;;;;;;;;;;;;;;;;5069761;28;1230;-72
2022/06/23 12:24:28;;;;;;;;;;;;;;;;;;5062065;28;1455;-73
2022/06/23 12:26:58;;;;;;;;;;;;;;;;;;5065857;28;1370;-74
2022/06/23 12:29:24;;;;;;;;;;;;;;;;;;5069904;28;1202;-74
2022/06/23 12:31:55;;;;;;;;;;;;;;;;;;5070109;28;1047;-73
2022/06/23 12:34:23;;;;;;;;;;;;;;;;;;5063239;28;1433;-73
2022/06/23 12:36:52;;;;;;;;;;;;;;;;;;5070915;28;1172;-73
2022/06/23 12:39:20;;;;;;;;;;;;;;;;;;5065691;28;1922;-73
2022/06/23 12:41:47;;;;;;;;;;;;;;;;;;5058882;28;1507;-73
2022/06/23 12:44:26;;;;;;;;;;;;;;;;;;5057037;28;1410;-74
2022/06/23 12:46:54;;;;;;;;;;;;;;;;;;5053794;28;1949;-73
2022/06/23 12:49:28;;;;;;;;;;;;;;;;;;5061913;28;1402;-73
2022/06/23 12:52:01;;;;;;;;;;;;;;;;;;5069407;28;1152;-73
2022/06/23 12:54:37;;;;;;;;;;;;;;;;;;5069630;28;1400;-74
2022/06/23 12:57:07;;;;;;;;;;;;;;;;;;5069975;28;1918;-73
2022/06/23 12:59:34;;;;;;;;;;;;;;;;;;5064053;28;1378;-74
2022/06/23 13:02:07;;;;;;;;;;;;;;;;;;5060824;28;1410;-74
2022/06/23 13:04:37;;;;;;;;;;;;;;;;;;5055570;28;1490;-72
2022/06/23 13:07:04;;;;;;;;;;;;;;;;;;5067096;28;1285;-73
2022/06/23 13:09:31;;;;;;;;;;;;;;;;;;5058273;28;1466;-73
2022/06/23 13:12:00;;;;;;;;;;;;;;;;;;5050317;28;938;-73
2022/06/23 13:14:27;;;;;;;;;;;;;;;;;;5049432;28;1309;-73
2022/06/23 13:16:55;;;;;;;;;;;;;;;;;;5037865;28;1217;-72
2022/06/23 13:19:23;;;;;;;;;;;;;;;;;;5030500;28;1988;-72
2022/06/23 13:21:50;;;;;;;;;;;;;;;;;;5038507;28;1319;-73
2022/06/23 13:24:17;;;;;;;;;;;;;;;;;;5050737;28;1337;-74
2022/06/23 13:26:44;;;;;;;;;;;;;;;;;;5047684;28;1410;-73
2022/06/23 13:29:13;;;;;;;;;;;;;;;;;;5060159;28;1358;-72
2022/06/23 13:31:40;;;;;;;;;;;;;;;;;;5070043;28;1235;-72
2022/06/23 13:34:07;;;;;;;;;;;;;;;;;;5062386;28;1444;-74
2022/06/23 13:36:40;;;;;;;;;;;;;;;;;;5069812;28;1165;-73
2022/06/23 13:39:08;;;;;;;;;;;;;;;;;;5062154;28;1918;-73
2022/06/23 13:41:36;;;;;;;;;;;;;;;;;;5069947;28;1247;-73
2022/06/23 13:44:03;;;;;;;;;;;;;;;;;;5062275;28;1409;-72
2022/06/23 13:46:31;;;;;;;;;;;;;;;;;;5069471;28;1223;-72
2022/06/23 13:48:59;;;;;;;;;;;;;;;;;;5070141;28;826;-72
2022/06/23 13:51:27;;;;;;;;;;;;;;;;;;5067204;28;1441;-73
2022/06/23 13:53:59;;;;;;;;;;;;;;;;;;5069362;28;1356;-72
2022/06/23 13:56:26;;;;;;;;;;;;;;;;;;5069303;28;882;-73
2022/06/23 13:58:54;;;;;;;;;;;;;;;;;;5049676;28;1979;-73
2022/06/23 14:01:22;;;;;;;;;;;;;;;;;;5060470;28;1505;-73
2022/06/23 14:03:49;;;;;;;;;;;;;;;;;;5063169;28;1424;-72
2022/06/23 14:06:16;;;;;;;;;;;;;;;;;;5052314;28;1472;-71
2022/06/23 14:08:43;;;;;;;;;;;;;;;;;;5069886;28;1203;-72
2022/06/23 14:11:11;;;;;;;;;;;;;;;;;;5068894;28;1071;-73
2022/06/23 14:13:39;;;;;;;;;;;;;;;;;;5069560;28;1512;-73
2022/06/23 14:16:06;;;;;;;;;;;;;;;;;;5059781;28;1463;-73
2022/06/23 14:18:36;;;;;;;;;;;;;;;;;;5058268;28;1967;-73
2022/06/23 14:21:07;;;;;;;;;;;;;;;;;;5044326;28;1929;-72
2022/06/23 14:23:36;;;;;;;;;;;;;;;;;;5045753;28;1766;-72
2022/06/23 14:26:03;;;;;;;;;;;;;;;;;;5052405;28;1409;-72
2022/06/23 14:28:31;;;;;;;;;;;;;;;;;;5055509;28;1339;-72
2022/06/23 14:30:59;;;;;;;;;;;;;;;;;;5061241;28;1453;-72
2022/06/23 14:33:25;;;;;;;;;;;;;;;;;;5048468;28;1417;-73
2022/06/23 14:35:53;;;;;;;;;;;;;;;;;;5028086;28;1230;-72
2022/06/23 14:38:21;;;;;;;;;;;;;;;;;;5039133;28;1977;-72
2022/06/23 14:40:48;;;;;;;;;;;;;;;;;;5051957;28;1561;-72
2022/06/23 14:43:28;;;;;;;;;;;;;;;;;;5058191;28;1480;-72
2022/06/23 14:45:58;;;;;;;;;;;;;;;;;;5066168;28;1390;-73
2022/06/23 14:48:39;;;;;;;;;;;;;;;;;;5067952;28;1169;-73
2022/06/23 14:51:07;;;;;;;;;;;;;;;;;;5054997;28;1563;-73
2022/06/23 14:53:35;;;;;;;;;;;;;;;;;;5051740;28;1401;-73
2022/06/23 14:56:03;;;;;;;;;;;;;;;;;;5059289;28;1928;-73
2022/06/23 14:58:32;;;;;;;;;;;;;;;;;;5064685;28;1918;-73
2022/06/23 15:01:00;;;;;;;;;;;;;;;;;;5053903;28;1526;-73
2022/06/23 15:03:29;;;;;;;;;;;;;;;;;;5051902;28;1496;-73
2022/06/23 15:05:57;;;;;;;;;;;;;;;;;;5060061;28;1449;-73
2022/06/23 15:08:24;;;;;;;;;;;;;;;;;;5072514;28;1119;-73
2022/06/23 15:10:56;;;;;;;;;;;;;;;;;;5073252;28;1306;-73
2022/06/23 15:13:32;;;;;;;;;;;;;;;;;;5072760;28;1329;-73
2022/06/23 15:16:00;;;;;;;;;;;;;;;;;;5060506;28;1362;-73
2022/06/23 15:18:28;;;;;;;;;;;;;;;;;;5051997;28;1910;-73
2022/06/23 15:20:55;;;;;;;;;;;;;;;;;;5052598;28;858;-73
2022/06/23 15:23:23;;;;;;;;;;;;;;;;;;5052831;28;1306;-73
2022/06/23 15:25:52;;;;;;;;;;;;;;;;;;5052458;28;984;-73
2022/06/23 15:28:21;;;;;;;;;;;;;;;;;;5050974;28;1306;-73
2022/06/23 15:30:47;;;;;;;;;;;;;;;;;;5052778;28;867;-73
2022/06/23 15:33:17;;;;;;;;;;;;;;;;;;5052704;28;1410;-73
2022/06/23 15:35:46;;;;;;;;;;;;;;;;;;5052843;28;973;-73
2022/06/23 15:38:19;;;;;;;;;;;;;;;;;;5051741;28;1977;-73
2022/06/23 15:40:46;;;;;;;;;;;;;;;;;;5050862;28;1108;-73
2022/06/23 15:43:16;;;;;;;;;;;;;;;;;;5052487;28;1416;-73
2022/06/23 15:45:45;;;;;;;;;;;;;;;;;;5052795;28;1139;-73
2022/06/23 15:48:14;;;;;;;;;;;;;;;;;;5051408;28;1123;-73
2022/06/23 15:50:44;;;;;;;;;;;;;;;;;;5052520;28;1060;-73
2022/06/23 15:53:11;;;;;;;;;;;;;;;;;;5052004;28;1333;-73
2022/06/23 15:55:38;;;;;;;;;;;;;;;;;;5052328;28;1064;-73
2022/06/23 15:58:05;;;;;;;;;;;;;;;;;;5050036;28;1906;-73
2022/06/23 16:00:32;;;;;;;;;;;;;;;;;;5052166;28;696;-73
2022/06/23 16:03:00;;;;;;;;;;;;;;;;;;5050237;28;1448;-73
2022/06/23 16:05:27;;;;;;;;;;;;;;;;;;5052123;28;1068;-73
2022/06/23 16:07:57;;;;;;;;;;;;;;;;;;5051453;28;1039;-73
2022/06/23 16:10:28;;;;;;;;;;;;;;;;;;5052700;28;1123;-73
2022/06/23 16:12:57;;;;;;;;;;;;;;;;;;5049971;28;1361;-73
2022/06/23 16:15:25;;;;;;;;;;;;;;;;;;5052101;28;1158;-73
2022/06/23 16:17:52;;;;;;;;;;;;;;;;;;5050221;28;1507;-73
2022/06/23 16:20:19;;;;;;;;;;;;;;;;;;5051962;28;2014;-73
2022/06/23 16:22:49;;;;;;;;;;;;;;;;;;5051484;28;861;-73
2022/06/23 16:25:21;;;;;;;;;;;;;;;;;;5051825;28;845;-73
2022/06/23 16:27:48;;;;;;;;;;;;;;;;;;5051143;28;740;-73
2022/06/23 16:30:17;;;;;;;;;;;;;;;;;;5051525;28;1008;-73
2022/06/23 16:32:45;;;;;;;;;;;;;;;;;;5051367;28;1134;-73
2022/06/23 16:35:12;;;;;;;;;;;;;;;;;;5051540;28;1388;-73
2022/06/23 16:37:40;;;;;;;;;;;;;;;;;;5050922;28;1072;-73
2022/06/23 16:40:08;;;;;;;;;;;;;;;;;;5051273;28;1910;-74
2022/06/23 16:42:39;;;;;;;;;;;;;;;;;;5051497;28;1076;-74
2022/06/23 16:45:08;;;;;;;;;;;;;;;;;;5049977;28;1507;-74
2022/06/23 16:47:36;;;;;;;;;;;;;;;;;;5047972;28;1455;-74
2022/06/23 16:50:04;;;;;;;;;;;;;;;;;;5052260;28;1343;-74
2022/06/23 16:52:34;;;;;;;;;;;;;;;;;;5068843;28;1354;-74
2022/06/23 16:55:03;;;;;;;;;;;;;;;;;;5069553;28;1349;-74
2022/06/23 16:57:32;;;;;;;;;;;;;;;;;;5070995;28;1056;-74
2022/06/23 17:00:01;;;;;;;;;;;;;;;;;;5064345;28;1981;-74
2022/06/23 17:02:28;;;;;;;;;;;;;;;;;;5070790;28;1219;-75
2022/06/23 17:04:55;;;;;;;;;;;;;;;;;;5070680;28;1297;-75
2022/06/23 17:07:23;;;;;;;;;;;;;;;;;;5064158;28;1377;-75
2022/06/23 17:09:50;;;;;;;;;;;;;;;;;;5070561;28;1176;-75
2022/06/23 17:12:18;;;;;;;;;;;;;;;;;;5054825;28;1470;-75
2022/06/23 17:14:47;;;;;;;;;;;;;;;;;;5049590;28;1494;-74
2022/06/23 17:17:16;;;;;;;;;;;;;;;;;;5054716;28;1388;-75
2022/06/23 17:19:43;;;;;;;;;;;;;;;;;;5067956;28;1930;-75
2022/06/23 17:22:11;;;;;;;;;;;;;;;;;;5069295;28;1476;-75
2022/06/23 17:24:38;;;;;;;;;;;;;;;;;;5069518;28;1416;-75
2022/06/23 17:27:10;;;;;;;;;;;;;;;;;;5062451;28;1445;-75